createdAt,value
2022-10-13T00:00:36.127Z,100.00
2022-10-13T00:03:24.586Z,100.00
2022-10-13T00:06:13.957Z,100.00
2022-10-13T00:09:02.395Z,100.00
2022-10-13T00:11:50.851Z,100.00
2022-10-13T00:14:40.677Z,100.00
2022-10-13T00:17:29.107Z,100.00
2022-10-13T00:20:17.727Z,100.00
2022-10-13T00:23:06.299Z,100.00
2022-10-13T00:25:54.728Z,100.00
2022-10-13T00:28:43.489Z,100.00
2022-10-13T00:31:34.715Z,100.00
2022-10-13T00:34:23.146Z,100.00
2022-10-13T00:37:11.592Z,100.00
2022-10-13T00:40:00.008Z,100.00
2022-10-13T00:42:48.531Z,100.00
2022-10-13T00:45:36.975Z,100.00
2022-10-13T00:48:28.863Z,100.00
2022-10-13T00:51:20.056Z,100.00
2022-10-13T00:54:10.079Z,100.00
2022-10-13T00:56:58.709Z,100.00
2022-10-13T00:59:47.435Z,100.00
2022-10-13T01:02:37.785Z,100.00
2022-10-13T01:05:27.595Z,100.00
2022-10-13T01:08:16.175Z,100.00
2022-10-13T01:11:16.867Z,100.00
2022-10-13T01:14:12.700Z,100.00
2022-10-13T01:17:07.434Z,100.00
2022-10-13T01:20:23.676Z,100.00
2022-10-13T01:23:24.296Z,100.00
2022-10-13T01:26:44.180Z,100.00
2022-10-13T01:30:10.775Z,100.00
2022-10-13T01:33:07.228Z,100.00
2022-10-13T01:36:05.141Z,100.00
2022-10-13T01:38:56.336Z,100.00
2022-10-13T01:41:47.782Z,100.00
2022-10-13T01:44:39.364Z,100.00
2022-10-13T01:47:32.060Z,100.00
2022-10-13T01:50:20.589Z,100.00
2022-10-13T01:53:09.860Z,100.00
2022-10-13T01:55:59.940Z,100.00
2022-10-13T01:58:48.981Z,100.00
2022-10-13T02:01:47.493Z,100.00
2022-10-13T02:04:46.232Z,100.00
2022-10-13T02:07:39.215Z,100.00
2022-10-13T02:10:30.290Z,100.00
2022-10-13T02:13:21.021Z,100.00
2022-10-13T02:16:09.690Z,100.00
2022-10-13T02:18:59.189Z,100.00
2022-10-13T02:21:49.750Z,100.00
2022-10-13T02:24:38.310Z,100.00
2022-10-13T02:27:27.372Z,100.00
2022-10-13T02:30:22.601Z,100.00
2022-10-13T02:33:11.233Z,100.00
2022-10-13T02:35:59.861Z,100.00
2022-10-13T02:38:49.987Z,100.00
2022-10-13T02:41:38.438Z,100.00
2022-10-13T02:44:26.833Z,100.00
2022-10-13T02:47:15.251Z,100.00
2022-10-13T02:50:03.900Z,100.00
2022-10-13T02:52:52.335Z,100.00
2022-10-13T02:55:42.433Z,100.00
2022-10-13T02:58:30.863Z,100.00
2022-10-13T03:01:19.258Z,100.00
2022-10-13T03:04:07.785Z,100.00
2022-10-13T03:06:56.225Z,100.00
2022-10-13T03:09:44.728Z,100.00
2022-10-13T03:12:34.674Z,100.00
2022-10-13T03:15:23.546Z,100.00
2022-10-13T03:18:12.106Z,100.00
2022-10-13T03:21:02.128Z,100.00
2022-10-13T03:23:50.549Z,100.00
2022-10-13T03:26:38.981Z,100.00
2022-10-13T03:29:28.791Z,100.00
2022-10-13T03:32:17.745Z,100.00
2022-10-13T03:35:06.887Z,100.00
2022-10-13T03:37:55.423Z,100.00
2022-10-13T03:40:43.999Z,100.00
2022-10-13T03:43:32.407Z,100.00
2022-10-13T03:46:22.184Z,100.00
2022-10-13T03:49:11.242Z,100.00
2022-10-13T03:51:59.687Z,100.00
2022-10-13T03:54:48.152Z,100.00
2022-10-13T03:57:36.568Z,100.00
2022-10-13T04:00:25.027Z,100.00
2022-10-13T04:03:15.259Z,100.00
2022-10-13T04:06:04.545Z,100.00
2022-10-13T04:08:53.304Z,100.00
2022-10-13T04:11:41.786Z,100.00
2022-10-13T04:14:30.205Z,100.00
2022-10-13T04:17:18.631Z,100.00
2022-10-13T04:20:10.119Z,100.00
2022-10-13T04:22:58.548Z,100.00
2022-10-13T04:25:46.965Z,100.00
2022-10-13T04:28:35.928Z,100.00
2022-10-13T04:31:25.361Z,100.00
2022-10-13T04:34:13.791Z,100.00
2022-10-13T04:37:03.574Z,100.00
2022-10-13T04:39:52.111Z,100.00
2022-10-13T04:42:40.530Z,100.00
2022-10-13T04:45:29.251Z,100.00
2022-10-13T04:48:17.639Z,100.00
2022-10-13T04:51:08.946Z,100.00
2022-10-13T04:54:01.000Z,100.00
2022-10-13T04:56:49.479Z,100.00
2022-10-13T04:59:38.106Z,100.00
2022-10-13T05:02:26.511Z,100.00
2022-10-13T05:05:14.901Z,100.00
2022-10-13T05:08:03.332Z,100.00
2022-10-13T05:10:56.991Z,100.00
2022-10-13T05:13:45.374Z,100.00
2022-10-13T05:16:33.792Z,100.00
2022-10-13T05:19:22.283Z,100.00
2022-10-13T05:22:10.762Z,100.00
2022-10-13T05:24:59.176Z,100.00
2022-10-13T05:27:48.989Z,100.00
2022-10-13T05:30:37.480Z,100.00
2022-10-13T05:33:25.889Z,100.00
2022-10-13T05:36:17.315Z,100.00
2022-10-13T05:39:07.385Z,100.00
2022-10-13T05:41:55.820Z,100.00
2022-10-13T05:44:45.641Z,100.00
2022-10-13T05:47:39.657Z,100.00
2022-10-13T05:50:28.108Z,100.00
2022-10-13T05:53:16.656Z,100.00
2022-10-13T05:56:07.636Z,100.00
2022-10-13T05:59:01.015Z,100.00
2022-10-13T06:01:51.202Z,100.00
2022-10-13T06:04:41.410Z,100.00
2022-10-13T06:07:30.145Z,100.00
2022-10-13T06:10:18.820Z,100.00
2022-10-13T06:13:07.263Z,100.00
2022-10-13T06:15:55.677Z,100.00
2022-10-13T06:18:45.517Z,100.00
2022-10-13T06:21:35.717Z,100.00
2022-10-13T06:24:24.140Z,100.00
2022-10-13T06:27:12.953Z,100.00
2022-10-13T06:30:01.415Z,100.00
2022-10-13T06:32:49.839Z,100.00
2022-10-13T06:35:39.587Z,100.00
2022-10-13T06:38:28.030Z,100.00
2022-10-13T06:41:16.629Z,100.00
2022-10-13T06:44:05.336Z,100.00
2022-10-13T06:46:53.797Z,100.00
2022-10-13T06:49:42.188Z,100.00
2022-10-13T06:52:31.963Z,100.00
2022-10-13T06:55:20.412Z,100.00
2022-10-13T06:58:08.829Z,100.00
2022-10-13T07:00:57.319Z,100.00
2022-10-13T07:03:45.791Z,100.00
2022-10-13T07:06:34.235Z,100.00
2022-10-13T07:09:24.010Z,100.00
2022-10-13T07:12:14.017Z,100.00
2022-10-13T07:15:02.469Z,100.00
2022-10-13T07:17:51.889Z,100.00
2022-10-13T07:20:40.316Z,100.00
2022-10-13T07:23:29.825Z,100.00
2022-10-13T07:26:19.602Z,100.00
2022-10-13T07:29:08.427Z,100.00
2022-10-13T07:31:56.846Z,100.00
2022-10-13T07:34:45.286Z,100.00
2022-10-13T07:37:33.773Z,100.00
2022-10-13T07:40:22.172Z,100.00
2022-10-13T07:43:11.979Z,100.00
2022-10-13T07:46:00.978Z,100.00
2022-10-13T07:48:49.569Z,100.00
2022-10-13T07:51:38.081Z,100.00
2022-10-13T07:54:27.511Z,100.00
2022-10-13T07:57:16.325Z,100.00
2022-10-13T08:00:07.405Z,100.00
2022-10-13T08:02:55.860Z,100.00
2022-10-13T08:05:44.337Z,100.00
2022-10-13T08:08:33.310Z,100.00
2022-10-13T08:11:21.888Z,100.00
2022-10-13T08:14:12.752Z,100.00
2022-10-13T08:17:02.599Z,100.00
2022-10-13T08:19:52.037Z,100.00
2022-10-13T08:22:41.309Z,100.00
2022-10-13T08:25:29.777Z,100.00
2022-10-13T08:28:20.037Z,100.00
2022-10-13T08:31:08.797Z,100.00
2022-10-13T08:33:58.772Z,100.00
2022-10-13T08:36:47.403Z,100.00
2022-10-13T08:39:35.880Z,100.00
2022-10-13T08:42:24.440Z,100.00
2022-10-13T08:48:30.876Z,100.00
2022-10-13T08:51:20.977Z,100.00
2022-10-13T08:54:09.459Z,100.00
2022-10-13T08:56:58.017Z,100.00
2022-10-13T08:59:46.641Z,100.00
2022-10-13T09:02:35.131Z,100.00
2022-10-13T09:05:31.832Z,100.00
2022-10-13T09:08:22.287Z,100.00
2022-10-13T09:11:12.759Z,100.00
2022-10-13T09:14:04.870Z,100.00
2022-10-13T09:16:53.681Z,100.00
2022-10-13T09:19:42.237Z,100.00
2022-10-13T09:22:32.680Z,100.00
2022-10-13T09:25:23.476Z,100.00
2022-10-13T09:28:17.148Z,100.00
2022-10-13T09:31:11.635Z,100.00
2022-10-13T09:34:03.768Z,100.00
2022-10-13T09:37:00.087Z,100.00
2022-10-13T09:40:01.370Z,100.00
2022-10-13T09:42:53.308Z,100.00
2022-10-13T09:45:43.721Z,100.00
2022-10-13T09:48:34.444Z,100.00
2022-10-13T09:51:36.484Z,100.00
2022-10-13T09:54:28.173Z,100.00
2022-10-13T09:57:26.553Z,100.00
2022-10-13T10:00:21.375Z,100.00
2022-10-13T10:03:14.612Z,100.00
2022-10-13T10:06:04.724Z,100.00
2022-10-13T10:09:05.074Z,100.00
2022-10-13T10:11:54.403Z,100.00
2022-10-13T10:14:42.856Z,100.00
2022-10-13T10:17:38.346Z,100.00
2022-10-13T10:20:41.803Z,100.00
2022-10-13T10:23:38.762Z,100.00
2022-10-13T10:26:33.017Z,100.00
2022-10-13T10:29:27.364Z,100.00
2022-10-13T10:32:34.172Z,100.00
2022-10-13T10:35:28.294Z,100.00
2022-10-13T10:38:26.980Z,100.00
2022-10-13T10:41:27.957Z,100.00
2022-10-13T10:44:17.164Z,100.00
2022-10-13T10:47:08.389Z,100.00
2022-10-13T10:50:01.382Z,100.00
2022-10-13T10:52:57.003Z,100.00
2022-10-13T10:55:50.298Z,100.00
2022-10-13T10:58:44.683Z,100.00
2022-10-13T11:01:38.498Z,100.00
2022-10-13T11:04:40.806Z,100.00
2022-10-13T11:07:59.015Z,100.00
2022-10-13T11:10:47.477Z,100.00
2022-10-13T11:13:51.216Z,100.00
2022-10-13T11:16:41.642Z,100.00
2022-10-13T11:19:30.881Z,100.00
2022-10-13T11:22:22.048Z,100.00
2022-10-13T11:25:39.282Z,100.00
2022-10-13T11:28:47.087Z,100.00
2022-10-13T11:31:54.274Z,100.00
2022-10-13T11:34:59.346Z,100.00
2022-10-13T11:38:06.943Z,100.00
2022-10-13T11:41:11.971Z,100.00
2022-10-13T11:44:04.486Z,100.00
2022-10-13T11:47:02.618Z,100.00
2022-10-13T11:50:03.471Z,100.00
2022-10-13T11:53:05.003Z,100.00
2022-10-13T11:55:54.685Z,99.46
2022-10-13T11:58:44.469Z,98.11
2022-10-13T12:01:32.951Z,98.44
2022-10-13T12:04:23.337Z,98.04
2022-10-13T12:07:13.047Z,96.32
2022-10-13T12:10:01.843Z,96.95
2022-10-13T12:12:50.926Z,97.68
2022-10-13T12:15:42.838Z,97.94
2022-10-13T12:18:34.072Z,97.73
2022-10-13T12:21:23.609Z,97.52
2022-10-13T12:24:17.575Z,97.84
2022-10-13T12:27:11.688Z,96.97
2022-10-13T12:30:00.200Z,97.23
2022-10-13T12:32:51.418Z,97.02
2022-10-13T12:35:39.907Z,98.07
2022-10-13T12:38:28.404Z,100.00
2022-10-13T12:41:19.284Z,100.00
2022-10-13T12:44:09.254Z,99.41
2022-10-13T12:46:58.991Z,100.00
2022-10-13T12:49:48.783Z,100.00
2022-10-13T12:52:37.291Z,99.53
2022-10-13T12:55:25.735Z,99.39
2022-10-13T12:58:19.906Z,100.00
2022-10-13T13:01:10.554Z,100.00
2022-10-13T13:04:01.301Z,100.00
2022-10-13T13:06:56.431Z,100.00
2022-10-13T13:10:01.477Z,100.00
2022-10-13T13:12:50.986Z,100.00
2022-10-13T13:15:41.183Z,98.35
2022-10-13T13:18:35.747Z,98.35
2022-10-13T13:21:24.194Z,99.06
2022-10-13T13:24:28.194Z,97.29
2022-10-13T13:27:26.394Z,96.72
2022-10-13T13:30:17.042Z,96.09
2022-10-13T13:33:05.488Z,96.94
2022-10-13T13:35:54.350Z,98.32
2022-10-13T13:38:42.867Z,99.02
2022-10-13T13:41:32.776Z,99.53
2022-10-13T13:44:21.340Z,99.24
2022-10-13T13:47:18.495Z,100.00
2022-10-13T13:50:12.038Z,99.90
2022-10-13T13:53:00.850Z,99.03
2022-10-13T13:55:49.339Z,99.17
2022-10-13T13:58:39.133Z,100.00
2022-10-13T14:01:27.675Z,100.00
2022-10-13T14:04:16.230Z,99.78
2022-10-13T14:07:04.772Z,100.00
2022-10-13T14:09:54.504Z,100.00
2022-10-13T14:12:44.931Z,100.00
2022-10-13T14:15:34.781Z,100.00
2022-10-13T14:18:23.235Z,100.00
2022-10-13T14:21:11.741Z,99.79
2022-10-13T14:24:01.276Z,100.00
2022-10-13T14:26:49.800Z,100.00
2022-10-13T14:29:38.430Z,100.00
2022-10-13T14:32:28.432Z,100.00
2022-10-13T14:35:17.013Z,100.00
2022-10-13T14:38:05.481Z,100.00
2022-10-13T14:40:54.053Z,100.00
2022-10-13T14:43:42.467Z,100.00
2022-10-13T14:46:30.932Z,100.00
2022-10-13T14:49:20.717Z,100.00
2022-10-13T14:52:09.864Z,100.00
2022-10-13T14:54:58.341Z,100.00
2022-10-13T14:57:46.805Z,100.00
2022-10-13T15:00:35.283Z,100.00
2022-10-13T15:03:24.124Z,100.00
2022-10-13T15:06:16.156Z,100.00
2022-10-13T15:09:04.798Z,100.00
2022-10-13T15:11:53.331Z,100.00
2022-10-13T15:14:41.821Z,100.00
2022-10-13T15:17:31.593Z,100.00
2022-10-13T15:20:20.239Z,100.00
2022-10-13T15:23:10.378Z,100.00
2022-10-13T15:26:00.478Z,100.00
2022-10-13T15:28:50.797Z,100.00
2022-10-13T15:31:39.499Z,100.00
2022-10-13T15:34:27.889Z,100.00
2022-10-13T15:37:16.339Z,100.00
2022-10-13T15:40:07.332Z,100.00
2022-10-13T15:42:55.908Z,100.00
2022-10-13T15:45:45.100Z,100.00
2022-10-13T15:48:34.221Z,100.00
2022-10-13T15:51:26.704Z,100.00
2022-10-13T15:54:15.190Z,100.00
2022-10-13T15:57:05.107Z,100.00
2022-10-13T15:59:53.536Z,100.00
2022-10-13T16:02:42.429Z,100.00
2022-10-13T16:05:30.924Z,100.00
2022-10-13T16:08:19.361Z,100.00
2022-10-13T16:11:11.222Z,100.00
2022-10-13T16:14:01.213Z,100.00
2022-10-13T16:16:49.770Z,100.00
2022-10-13T16:19:38.233Z,100.00
2022-10-13T16:22:26.912Z,100.00
2022-10-13T16:25:15.557Z,100.00
2022-10-13T16:28:04.061Z,100.00
2022-10-13T16:30:54.342Z,100.00
2022-10-13T16:33:43.998Z,100.00
2022-10-13T16:36:32.782Z,100.00
2022-10-13T16:39:23.790Z,100.00
2022-10-13T16:42:12.312Z,100.00
2022-10-13T16:45:01.283Z,100.00
2022-10-13T16:47:52.914Z,100.00
2022-10-13T16:50:41.363Z,100.00
2022-10-13T16:53:30.486Z,100.00
2022-10-13T16:56:21.996Z,100.00
2022-10-13T16:59:11.358Z,100.00
2022-10-13T17:01:59.851Z,100.00
2022-10-13T17:04:49.773Z,100.00
2022-10-13T17:07:38.344Z,100.00
2022-10-13T17:10:26.931Z,100.00
2022-10-13T17:13:15.390Z,100.00
2022-10-13T17:16:04.172Z,100.00
2022-10-13T17:18:52.680Z,100.00
2022-10-13T17:21:42.663Z,100.00
2022-10-13T17:24:31.261Z,100.00
2022-10-13T17:27:19.992Z,100.00
2022-10-13T17:30:09.850Z,100.00
2022-10-13T17:33:02.031Z,100.00
2022-10-13T17:35:52.891Z,100.00
2022-10-13T17:38:43.147Z,100.00
2022-10-13T17:41:31.625Z,100.00
2022-10-13T17:44:20.808Z,100.00
2022-10-13T17:47:09.237Z,100.00
2022-10-13T17:49:57.706Z,100.00
2022-10-13T17:52:46.139Z,100.00
2022-10-13T17:55:35.947Z,100.00
2022-10-13T17:58:24.352Z,100.00
2022-10-13T18:01:15.882Z,100.00
2022-10-13T18:04:06.265Z,100.00
2022-10-13T18:06:55.013Z,100.00
2022-10-13T18:09:43.480Z,100.00
2022-10-13T18:12:33.583Z,100.00
2022-10-13T18:15:22.099Z,100.00
2022-10-13T18:18:11.359Z,100.00
2022-10-13T18:21:02.172Z,100.00
2022-10-13T18:23:50.881Z,100.00
2022-10-13T18:26:39.573Z,100.00
2022-10-13T18:29:29.426Z,100.00
2022-10-13T18:32:17.938Z,100.00
2022-10-13T18:35:07.362Z,100.00
2022-10-13T18:37:56.012Z,100.00
2022-10-13T18:40:44.671Z,100.00
2022-10-13T18:43:33.139Z,100.00
2022-10-13T18:46:23.400Z,100.00
2022-10-13T18:49:13.664Z,100.00
2022-10-13T18:52:02.514Z,100.00
2022-10-13T18:54:52.650Z,100.00
2022-10-13T18:57:41.113Z,100.00
2022-10-13T19:00:29.658Z,100.00
2022-10-13T19:03:19.510Z,100.00
2022-10-13T19:06:10.172Z,100.00
2022-10-13T19:09:00.601Z,100.00
2022-10-13T19:11:49.204Z,100.00
2022-10-13T19:14:37.758Z,100.00
2022-10-13T19:17:26.243Z,100.00
2022-10-13T19:20:16.116Z,100.00
2022-10-13T19:23:04.641Z,100.00
2022-10-13T19:25:53.127Z,100.00
2022-10-13T19:28:41.709Z,100.00
2022-10-13T19:31:31.937Z,100.00
2022-10-13T19:34:20.709Z,100.00
2022-10-13T19:37:10.532Z,100.00
2022-10-13T19:39:59.025Z,100.00
2022-10-13T19:42:47.524Z,100.00
2022-10-13T19:45:36.023Z,100.00
2022-10-13T19:48:25.044Z,100.00
2022-10-13T19:51:13.683Z,100.00
2022-10-13T19:54:03.804Z,100.00
2022-10-13T19:56:52.339Z,100.00
2022-10-13T19:59:45.300Z,100.00
2022-10-13T20:02:35.987Z,100.00
2022-10-13T20:05:25.548Z,100.00
2022-10-13T20:08:14.179Z,100.00
2022-10-13T20:11:08.153Z,100.00
2022-10-13T20:13:56.635Z,100.00
2022-10-13T20:16:45.747Z,100.00
2022-10-13T20:19:34.187Z,100.00
2022-10-13T20:22:22.772Z,100.00
2022-10-13T20:25:11.217Z,100.00
2022-10-13T20:28:01.001Z,100.00
2022-10-13T20:30:49.425Z,100.00
2022-10-13T20:33:38.126Z,100.00
2022-10-13T20:36:27.756Z,100.00
2022-10-13T20:39:16.223Z,100.00
2022-10-13T20:42:04.917Z,100.00
2022-10-13T20:44:54.857Z,100.00
2022-10-13T20:47:43.331Z,100.00
2022-10-13T20:50:31.784Z,100.00
2022-10-13T20:53:20.264Z,100.00
2022-10-13T20:56:10.214Z,100.00
2022-10-13T20:59:03.429Z,100.00
2022-10-13T21:01:53.256Z,100.00
2022-10-13T21:04:41.794Z,100.00
2022-10-13T21:07:30.269Z,100.00
2022-10-13T21:10:18.743Z,100.00
2022-10-13T21:13:07.304Z,100.00
2022-10-13T21:15:55.734Z,100.00
2022-10-13T21:18:47.992Z,100.00
2022-10-13T21:21:36.906Z,100.00
2022-10-13T21:24:25.360Z,100.00
2022-10-13T21:27:13.805Z,100.00
2022-10-13T21:30:02.224Z,100.00
2022-10-13T21:32:50.707Z,100.00
2022-10-13T21:35:40.531Z,100.00
2022-10-13T21:38:28.971Z,100.00
2022-10-13T21:41:17.524Z,100.00
2022-10-13T21:44:06.004Z,100.00
2022-10-13T21:46:54.454Z,100.00
2022-10-13T21:49:42.888Z,100.00
2022-10-13T21:52:35.581Z,100.00
2022-10-13T21:55:24.016Z,100.00
2022-10-13T21:58:12.441Z,100.00
2022-10-13T22:01:01.029Z,100.00
2022-10-13T22:03:49.978Z,100.00
2022-10-13T22:06:38.519Z,100.00
2022-10-13T22:09:28.552Z,100.00
2022-10-13T22:12:16.989Z,100.00
2022-10-13T22:15:06.289Z,100.00
2022-10-13T22:17:54.711Z,100.00
2022-10-13T22:20:43.185Z,100.00
2022-10-13T22:23:31.716Z,100.00
2022-10-13T22:26:21.515Z,100.00
2022-10-13T22:29:11.764Z,100.00
2022-10-13T22:32:00.325Z,100.00
2022-10-13T22:34:48.756Z,100.00
2022-10-13T22:37:37.220Z,100.00
2022-10-13T22:40:25.643Z,100.00
2022-10-13T22:43:15.432Z,100.00
2022-10-13T22:46:04.384Z,100.00
2022-10-13T22:48:53.090Z,100.00
2022-10-13T22:51:41.591Z,100.00
2022-10-13T22:54:30.198Z,100.00
2022-10-13T22:57:19.197Z,100.00
2022-10-13T23:00:10.991Z,100.00
2022-10-13T23:02:59.423Z,100.00
2022-10-13T23:05:48.848Z,100.00
2022-10-13T23:08:37.296Z,100.00
2022-10-13T23:11:25.771Z,100.00
2022-10-13T23:14:14.240Z,100.00
2022-10-13T23:17:04.058Z,100.00
2022-10-13T23:19:52.467Z,100.00
2022-10-13T23:22:40.951Z,100.00
2022-10-13T23:25:29.367Z,100.00
2022-10-13T23:28:17.917Z,100.00
2022-10-13T23:31:08.400Z,100.00
2022-10-13T23:33:58.591Z,100.00
2022-10-13T23:36:47.216Z,100.00
2022-10-13T23:39:35.759Z,100.00
2022-10-13T23:42:24.192Z,100.00
2022-10-13T23:45:12.707Z,100.00
2022-10-13T23:48:01.146Z,100.00
2022-10-13T23:50:50.939Z,100.00
2022-10-13T23:53:39.887Z,100.00
2022-10-13T23:56:28.461Z,100.00
2022-10-13T23:59:16.875Z,100.00
